Terminal Aerodrome Forecast
Issued by NWS Wilmington, NC

Home | Current Version | Previous Version | Text Only | Print | Product List | Glossary On
Versions: 1 2 3 4 5 6 7 8 9 10 11 12 13 14
000
FTUS42 KILM 242327
TAFFLO
TAF
KFLO 242327Z 2500/2524 VRB03KT P6SM SKC
     FM250800 00000KT 1/2SM FG VV002
     FM251300 20006KT P6SM SCT250
     FM251600 21011KT P6SM SCT250
     FM252000 25011G18KT P6SM SCT050=

USA.gov is the U.S. government's official web portal to all federal, state and local government web resources and services.